Carmen de Areco, Argentina
Current Conditions -  °F | °C
As of 3:00 AM on Monday 24 Nov 2014 (Local Time) from SADF Reporting Station
Clear Clear  
Wind Chill: 66°   Ceiling: Unl
Heat Index: 66°   Visibility: 6mi
Dew Point: 59°   Wind: 2mph
Humidity: 78%   Direction: 360°N
Pressure: 29.71"   Gusts: NA
Location:  34.37°S, 59.82°W
Report Text: SADF 240600Z 36002KT CAVOK 19/15 Q1006
Loading
Personal Weather Stations






























Interactive Weather Map New forecast layout! Learn more

10-Day Weather Forecast

Advertisements
Track Severe Weather on mobile